sensor_id;sensor_type;location;lat;lon;timestamp;P1;durP1;ratioP1;P2;durP2;ratioP2
74650;SDS011;63169;46.042;14.592;2023-05-27T00:00:08;5.70;;;3.25;;
74650;SDS011;63169;46.042;14.592;2023-05-27T00:02:34;5.65;;;5.10;;
74650;SDS011;63169;46.042;14.592;2023-05-27T00:05:00;6.97;;;2.90;;
74650;SDS011;63169;46.042;14.592;2023-05-27T00:07:25;5.22;;;2.30;;
74650;SDS011;63169;46.042;14.592;2023-05-27T00:09:51;5.38;;;3.00;;
74650;SDS011;63169;46.042;14.592;2023-05-27T00:12:16;5.80;;;4.60;;
74650;SDS011;63169;46.042;14.592;2023-05-27T00:14:42;6.07;;;3.08;;
74650;SDS011;63169;46.042;14.592;2023-05-27T00:17:08;7.88;;;2.90;;
74650;SDS011;63169;46.042;14.592;2023-05-27T00:19:42;5.97;;;3.30;;
74650;SDS011;63169;46.042;14.592;2023-05-27T00:22:09;5.07;;;2.63;;
74650;SDS011;63169;46.042;14.592;2023-05-27T00:24:35;8.27;;;3.22;;
74650;SDS011;63169;46.042;14.592;2023-05-27T00:27:04;6.03;;;4.60;;
74650;SDS011;63169;46.042;14.592;2023-05-27T00:29:32;6.45;;;3.05;;
74650;SDS011;63169;46.042;14.592;2023-05-27T00:31:59;6.72;;;3.42;;
74650;SDS011;63169;46.042;14.592;2023-05-27T00:34:25;6.78;;;3.30;;
74650;SDS011;63169;46.042;14.592;2023-05-27T00:36:50;8.10;;;3.28;;
74650;SDS011;63169;46.042;14.592;2023-05-27T00:39:16;5.07;;;2.08;;
74650;SDS011;63169;46.042;14.592;2023-05-27T00:41:43;5.90;;;3.20;;
74650;SDS011;63169;46.042;14.592;2023-05-27T00:44:13;6.45;;;3.22;;
74650;SDS011;63169;46.042;14.592;2023-05-27T00:46:38;6.38;;;2.83;;
74650;SDS011;63169;46.042;14.592;2023-05-27T00:49:03;6.65;;;2.95;;
74650;SDS011;63169;46.042;14.592;2023-05-27T00:51:29;6.20;;;3.60;;
74650;SDS011;63169;46.042;14.592;2023-05-27T00:53:54;7.38;;;3.47;;
74650;SDS011;63169;46.042;14.592;2023-05-27T00:56:20;9.30;;;3.45;;
74650;SDS011;63169;46.042;14.592;2023-05-27T00:58:48;6.70;;;3.70;;
74650;SDS011;63169;46.042;14.592;2023-05-27T01:01:13;8.18;;;2.85;;
74650;SDS011;63169;46.042;14.592;2023-05-27T01:03:39;6.15;;;3.20;;
74650;SDS011;63169;46.042;14.592;2023-05-27T01:09:00;6.57;;;4.82;;
74650;SDS011;63169;46.042;14.592;2023-05-27T01:11:30;8.05;;;4.20;;
74650;SDS011;63169;46.042;14.592;2023-05-27T01:14:00;5.78;;;3.08;;
74650;SDS011;63169;46.042;14.592;2023-05-27T01:16:30;6.60;;;3.47;;
74650;SDS011;63169;46.042;14.592;2023-05-27T01:18:56;5.80;;;2.78;;
74650;SDS011;63169;46.042;14.592;2023-05-27T01:21:24;7.43;;;3.13;;
74650;SDS011;63169;46.042;14.592;2023-05-27T01:23:53;5.68;;;2.63;;
74650;SDS011;63169;46.042;14.592;2023-05-27T01:26:19;6.53;;;3.83;;
74650;SDS011;63169;46.042;14.592;2023-05-27T01:28:44;7.40;;;3.75;;
74650;SDS011;63169;46.042;14.592;2023-05-27T01:31:15;6.63;;;3.40;;
74650;SDS011;63169;46.042;14.592;2023-05-27T01:33:47;6.93;;;3.60;;
74650;SDS011;63169;46.042;14.592;2023-05-27T01:36:16;6.20;;;2.78;;
74650;SDS011;63169;46.042;14.592;2023-05-27T01:38:43;8.07;;;3.55;;
74650;SDS011;63169;46.042;14.592;2023-05-27T01:41:10;5.95;;;3.35;;
74650;SDS011;63169;46.042;14.592;2023-05-27T01:43:38;6.47;;;3.10;;
74650;SDS011;63169;46.042;14.592;2023-05-27T01:46:04;6.53;;;3.10;;
74650;SDS011;63169;46.042;14.592;2023-05-27T01:48:30;6.32;;;2.55;;
74650;SDS011;63169;46.042;14.592;2023-05-27T01:50:55;5.22;;;3.20;;
74650;SDS011;63169;46.042;14.592;2023-05-27T01:53:21;6.10;;;2.72;;
74650;SDS011;63169;46.042;14.592;2023-05-27T01:55:46;6.47;;;3.28;;
74650;SDS011;63169;46.042;14.592;2023-05-27T01:58:11;6.50;;;3.63;;
74650;SDS011;63169;46.042;14.592;2023-05-27T02:00:37;6.97;;;3.30;;
74650;SDS011;63169;46.042;14.592;2023-05-27T02:03:02;7.00;;;4.28;;
74650;SDS011;63169;46.042;14.592;2023-05-27T02:05:27;6.88;;;3.40;;
74650;SDS011;63169;46.042;14.592;2023-05-27T02:07:53;6.28;;;3.60;;
74650;SDS011;63169;46.042;14.592;2023-05-27T02:10:18;6.97;;;3.20;;
74650;SDS011;63169;46.042;14.592;2023-05-27T02:12:43;6.72;;;3.80;;
74650;SDS011;63169;46.042;14.592;2023-05-27T02:15:09;5.68;;;3.03;;
74650;SDS011;63169;46.042;14.592;2023-05-27T02:17:34;7.78;;;3.13;;
74650;SDS011;63169;46.042;14.592;2023-05-27T02:20:00;7.47;;;4.13;;
74650;SDS011;63169;46.042;14.592;2023-05-27T02:22:26;9.10;;;5.45;;
74650;SDS011;63169;46.042;14.592;2023-05-27T02:27:17;6.57;;;3.30;;
74650;SDS011;63169;46.042;14.592;2023-05-27T02:29:42;6.53;;;3.50;;
74650;SDS011;63169;46.042;14.592;2023-05-27T02:32:08;6.68;;;3.65;;
74650;SDS011;63169;46.042;14.592;2023-05-27T02:34:33;8.70;;;3.38;;
74650;SDS011;63169;46.042;14.592;2023-05-27T02:37:02;8.20;;;3.38;;
74650;SDS011;63169;46.042;14.592;2023-05-27T02:39:29;6.18;;;2.58;;
74650;SDS011;63169;46.042;14.592;2023-05-27T02:41:54;6.30;;;3.05;;
74650;SDS011;63169;46.042;14.592;2023-05-27T02:44:20;5.85;;;3.53;;
74650;SDS011;63169;46.042;14.592;2023-05-27T02:46:45;7.82;;;3.78;;
74650;SDS011;63169;46.042;14.592;2023-05-27T02:49:11;7.00;;;3.65;;
74650;SDS011;63169;46.042;14.592;2023-05-27T02:51:37;7.32;;;3.15;;
74650;SDS011;63169;46.042;14.592;2023-05-27T02:54:03;6.07;;;3.70;;
74650;SDS011;63169;46.042;14.592;2023-05-27T02:56:28;6.07;;;3.92;;
74650;SDS011;63169;46.042;14.592;2023-05-27T02:58:53;6.32;;;3.03;;
74650;SDS011;63169;46.042;14.592;2023-05-27T03:01:19;6.88;;;3.47;;
74650;SDS011;63169;46.042;14.592;2023-05-27T03:03:44;6.95;;;4.07;;
74650;SDS011;63169;46.042;14.592;2023-05-27T03:06:09;6.88;;;3.25;;
74650;SDS011;63169;46.042;14.592;2023-05-27T03:08:35;7.05;;;3.67;;
74650;SDS011;63169;46.042;14.592;2023-05-27T03:11:01;5.55;;;3.13;;
74650;SDS011;63169;46.042;14.592;2023-05-27T03:13:26;6.38;;;3.60;;
74650;SDS011;63169;46.042;14.592;2023-05-27T03:15:52;6.85;;;3.70;;
74650;SDS011;63169;46.042;14.592;2023-05-27T03:18:19;7.65;;;3.70;;
74650;SDS011;63169;46.042;14.592;2023-05-27T03:20:45;6.28;;;3.63;;
74650;SDS011;63169;46.042;14.592;2023-05-27T03:23:10;6.35;;;3.50;;
74650;SDS011;63169;46.042;14.592;2023-05-27T03:25:35;7.45;;;4.82;;
74650;SDS011;63169;46.042;14.592;2023-05-27T03:28:01;6.22;;;3.42;;
74650;SDS011;63169;46.042;14.592;2023-05-27T03:30:26;10.77;;;3.03;;
74650;SDS011;63169;46.042;14.592;2023-05-27T03:32:51;7.47;;;3.58;;
74650;SDS011;63169;46.042;14.592;2023-05-27T03:35:17;6.10;;;3.53;;
74650;SDS011;63169;46.042;14.592;2023-05-27T03:37:42;6.10;;;4.38;;
74650;SDS011;63169;46.042;14.592;2023-05-27T03:40:08;8.48;;;2.97;;
74650;SDS011;63169;46.042;14.592;2023-05-27T03:42:34;8.20;;;3.65;;
74650;SDS011;63169;46.042;14.592;2023-05-27T03:44:59;6.63;;;3.60;;
74650;SDS011;63169;46.042;14.592;2023-05-27T03:47:25;6.15;;;3.45;;
74650;SDS011;63169;46.042;14.592;2023-05-27T03:49:51;8.48;;;4.13;;
74650;SDS011;63169;46.042;14.592;2023-05-27T03:52:16;8.25;;;4.03;;
74650;SDS011;63169;46.042;14.592;2023-05-27T03:54:41;6.40;;;3.30;;
74650;SDS011;63169;46.042;14.592;2023-05-27T03:57:07;6.50;;;3.35;;
74650;SDS011;63169;46.042;14.592;2023-05-27T03:59:33;7.63;;;4.00;;
74650;SDS011;63169;46.042;14.592;2023-05-27T04:01:58;7.22;;;4.18;;
74650;SDS011;63169;46.042;14.592;2023-05-27T04:04:24;6.22;;;3.08;;
74650;SDS011;63169;46.042;14.592;2023-05-27T04:06:49;8.30;;;3.83;;
74650;SDS011;63169;46.042;14.592;2023-05-27T04:09:14;8.40;;;4.47;;
74650;SDS011;63169;46.042;14.592;2023-05-27T04:11:40;8.35;;;3.38;;
74650;SDS011;63169;46.042;14.592;2023-05-27T04:14:05;5.75;;;3.10;;
74650;SDS011;63169;46.042;14.592;2023-05-27T04:16:34;8.02;;;4.28;;
74650;SDS011;63169;46.042;14.592;2023-05-27T04:19:00;7.05;;;4.13;;
74650;SDS011;63169;46.042;14.592;2023-05-27T04:21:26;10.00;;;3.95;;
74650;SDS011;63169;46.042;14.592;2023-05-27T04:23:51;7.20;;;3.65;;
74650;SDS011;63169;46.042;14.592;2023-05-27T04:26:16;5.80;;;3.65;;
74650;SDS011;63169;46.042;14.592;2023-05-27T04:28:43;8.68;;;5.07;;
74650;SDS011;63169;46.042;14.592;2023-05-27T04:31:10;7.43;;;3.97;;
74650;SDS011;63169;46.042;14.592;2023-05-27T04:33:40;9.50;;;3.85;;
74650;SDS011;63169;46.042;14.592;2023-05-27T04:36:06;9.18;;;4.45;;
74650;SDS011;63169;46.042;14.592;2023-05-27T04:40:57;14.47;;;3.50;;
74650;SDS011;63169;46.042;14.592;2023-05-27T04:43:23;8.07;;;4.32;;
74650;SDS011;63169;46.042;14.592;2023-05-27T04:45:49;7.32;;;3.30;;
74650;SDS011;63169;46.042;14.592;2023-05-27T04:48:15;9.20;;;5.13;;
74650;SDS011;63169;46.042;14.592;2023-05-27T04:50:41;10.48;;;4.78;;
74650;SDS011;63169;46.042;14.592;2023-05-27T04:53:07;13.07;;;4.22;;
74650;SDS011;63169;46.042;14.592;2023-05-27T04:55:33;8.50;;;3.50;;
74650;SDS011;63169;46.042;14.592;2023-05-27T04:57:59;9.38;;;4.10;;
74650;SDS011;63169;46.042;14.592;2023-05-27T05:00:28;7.65;;;3.92;;
74650;SDS011;63169;46.042;14.592;2023-05-27T05:03:12;17.95;;;4.57;;
74650;SDS011;63169;46.042;14.592;2023-05-27T05:05:45;12.98;;;5.35;;
74650;SDS011;63169;46.042;14.592;2023-05-27T05:08:10;7.95;;;4.57;;
74650;SDS011;63169;46.042;14.592;2023-05-27T05:10:36;9.32;;;4.43;;
74650;SDS011;63169;46.042;14.592;2023-05-27T05:13:03;10.13;;;5.97;;
74650;SDS011;63169;46.042;14.592;2023-05-27T05:15:29;12.13;;;3.85;;
74650;SDS011;63169;46.042;14.592;2023-05-27T05:17:55;8.82;;;4.32;;
74650;SDS011;63169;46.042;14.592;2023-05-27T05:20:21;7.68;;;3.17;;
74650;SDS011;63169;46.042;14.592;2023-05-27T05:22:46;10.27;;;3.80;;
74650;SDS011;63169;46.042;14.592;2023-05-27T05:25:12;8.38;;;4.25;;
74650;SDS011;63169;46.042;14.592;2023-05-27T05:27:37;8.45;;;3.88;;
74650;SDS011;63169;46.042;14.592;2023-05-27T05:30:03;8.75;;;4.13;;
74650;SDS011;63169;46.042;14.592;2023-05-27T05:32:29;8.73;;;5.00;;
74650;SDS011;63169;46.042;14.592;2023-05-27T05:34:54;6.93;;;4.05;;
74650;SDS011;63169;46.042;14.592;2023-05-27T05:37:19;7.57;;;4.32;;
74650;SDS011;63169;46.042;14.592;2023-05-27T05:39:45;8.07;;;4.18;;
74650;SDS011;63169;46.042;14.592;2023-05-27T05:42:10;7.32;;;4.07;;
74650;SDS011;63169;46.042;14.592;2023-05-27T05:44:36;8.30;;;4.20;;
74650;SDS011;63169;46.042;14.592;2023-05-27T05:47:01;8.15;;;4.65;;
74650;SDS011;63169;46.042;14.592;2023-05-27T05:49:27;12.18;;;4.70;;
74650;SDS011;63169;46.042;14.592;2023-05-27T05:51:52;11.63;;;6.40;;
74650;SDS011;63169;46.042;14.592;2023-05-27T05:54:17;9.85;;;4.53;;
74650;SDS011;63169;46.042;14.592;2023-05-27T05:56:43;8.20;;;4.43;;
74650;SDS011;63169;46.042;14.592;2023-05-27T05:59:08;6.97;;;3.67;;
74650;SDS011;63169;46.042;14.592;2023-05-27T06:01:33;8.75;;;5.05;;
74650;SDS011;63169;46.042;14.592;2023-05-27T06:03:59;8.98;;;4.57;;
74650;SDS011;63169;46.042;14.592;2023-05-27T06:06:29;9.10;;;3.83;;
74650;SDS011;63169;46.042;14.592;2023-05-27T06:08:54;8.38;;;3.70;;
74650;SDS011;63169;46.042;14.592;2023-05-27T06:11:20;9.15;;;4.10;;
74650;SDS011;63169;46.042;14.592;2023-05-27T06:13:46;7.97;;;4.78;;
74650;SDS011;63169;46.042;14.592;2023-05-27T06:16:12;7.30;;;4.05;;
74650;SDS011;63169;46.042;14.592;2023-05-27T06:18:37;8.30;;;3.55;;
74650;SDS011;63169;46.042;14.592;2023-05-27T06:21:02;9.50;;;4.15;;
74650;SDS011;63169;46.042;14.592;2023-05-27T06:23:28;10.02;;;4.97;;
74650;SDS011;63169;46.042;14.592;2023-05-27T06:25:53;9.18;;;5.65;;
74650;SDS011;63169;46.042;14.592;2023-05-27T06:28:19;7.97;;;4.13;;
74650;SDS011;63169;46.042;14.592;2023-05-27T06:30:44;24.05;;;6.05;;
74650;SDS011;63169;46.042;14.592;2023-05-27T06:33:10;18.80;;;4.65;;
74650;SDS011;63169;46.042;14.592;2023-05-27T06:35:35;7.75;;;3.92;;
74650;SDS011;63169;46.042;14.592;2023-05-27T06:38:01;8.00;;;4.57;;
74650;SDS011;63169;46.042;14.592;2023-05-27T06:40:27;7.22;;;4.63;;
74650;SDS011;63169;46.042;14.592;2023-05-27T06:42:53;7.15;;;4.13;;
74650;SDS011;63169;46.042;14.592;2023-05-27T06:45:18;7.78;;;3.85;;
74650;SDS011;63169;46.042;14.592;2023-05-27T06:47:44;7.85;;;3.88;;
74650;SDS011;63169;46.042;14.592;2023-05-27T06:50:09;7.63;;;3.38;;
74650;SDS011;63169;46.042;14.592;2023-05-27T06:52:35;6.63;;;3.28;;
74650;SDS011;63169;46.042;14.592;2023-05-27T06:55:00;10.48;;;3.72;;
74650;SDS011;63169;46.042;14.592;2023-05-27T06:57:26;6.07;;;3.67;;
74650;SDS011;63169;46.042;14.592;2023-05-27T06:59:51;8.55;;;3.95;;
74650;SDS011;63169;46.042;14.592;2023-05-27T07:02:16;8.10;;;3.60;;
74650;SDS011;63169;46.042;14.592;2023-05-27T07:04:42;6.07;;;3.88;;
74650;SDS011;63169;46.042;14.592;2023-05-27T07:07:07;7.38;;;5.45;;
74650;SDS011;63169;46.042;14.592;2023-05-27T07:11:58;6.40;;;3.87;;
74650;SDS011;63169;46.042;14.592;2023-05-27T07:14:24;7.32;;;3.40;;
74650;SDS011;63169;46.042;14.592;2023-05-27T07:16:50;7.35;;;3.40;;
74650;SDS011;63169;46.042;14.592;2023-05-27T07:19:17;7.10;;;3.63;;
74650;SDS011;63169;46.042;14.592;2023-05-27T07:21:42;7.68;;;4.25;;
74650;SDS011;63169;46.042;14.592;2023-05-27T07:26:33;8.37;;;3.50;;
74650;SDS011;63169;46.042;14.592;2023-05-27T07:31:24;5.50;;;3.47;;
74650;SDS011;63169;46.042;14.592;2023-05-27T07:33:50;8.40;;;5.45;;
74650;SDS011;63169;46.042;14.592;2023-05-27T07:38:41;5.90;;;3.25;;
74650;SDS011;63169;46.042;14.592;2023-05-27T07:43:32;8.00;;;3.33;;
74650;SDS011;63169;46.042;14.592;2023-05-27T07:48:22;6.27;;;3.37;;
74650;SDS011;63169;46.042;14.592;2023-05-27T07:53:13;9.37;;;4.03;;
74650;SDS011;63169;46.042;14.592;2023-05-27T07:58:03;6.30;;;3.27;;
74650;SDS011;63169;46.042;14.592;2023-05-27T08:02:55;6.15;;;3.78;;
74650;SDS011;63169;46.042;14.592;2023-05-27T08:07:45;7.87;;;3.57;;
74650;SDS011;63169;46.042;14.592;2023-05-27T08:12:36;6.90;;;3.85;;
74650;SDS011;63169;46.042;14.592;2023-05-27T08:17:27;7.70;;;3.85;;
74650;SDS011;63169;46.042;14.592;2023-05-27T08:22:18;6.13;;;3.50;;
74650;SDS011;63169;46.042;14.592;2023-05-27T08:27:15;8.40;;;3.50;;
74650;SDS011;63169;46.042;14.592;2023-05-27T08:29:41;6.65;;;3.35;;
74650;SDS011;63169;46.042;14.592;2023-05-27T08:34:32;6.82;;;3.35;;
74650;SDS011;63169;46.042;14.592;2023-05-27T08:39:24;6.65;;;3.40;;
74650;SDS011;63169;46.042;14.592;2023-05-27T08:44:15;6.40;;;4.07;;
74650;SDS011;63169;46.042;14.592;2023-05-27T08:46:43;7.85;;;4.45;;
74650;SDS011;63169;46.042;14.592;2023-05-27T08:49:11;7.57;;;4.20;;
74650;SDS011;63169;46.042;14.592;2023-05-27T08:54:04;6.53;;;3.30;;
74650;SDS011;63169;46.042;14.592;2023-05-27T08:58:55;7.28;;;3.95;;
74650;SDS011;63169;46.042;14.592;2023-05-27T09:01:21;7.60;;;4.00;;
74650;SDS011;63169;46.042;14.592;2023-05-27T09:06:13;7.70;;;6.15;;
74650;SDS011;63169;46.042;14.592;2023-05-27T09:11:03;6.25;;;3.70;;
74650;SDS011;63169;46.042;14.592;2023-05-27T09:13:32;5.40;;;4.03;;
74650;SDS011;63169;46.042;14.592;2023-05-27T09:18:31;5.88;;;3.42;;
74650;SDS011;63169;46.042;14.592;2023-05-27T09:20:57;8.35;;;4.18;;
74650;SDS011;63169;46.042;14.592;2023-05-27T09:25:48;6.65;;;3.35;;
74650;SDS011;63169;46.042;14.592;2023-05-27T09:28:24;7.25;;;2.78;;
74650;SDS011;63169;46.042;14.592;2023-05-27T09:30:59;8.32;;;3.90;;
74650;SDS011;63169;46.042;14.592;2023-05-27T09:33:26;6.97;;;4.10;;
74650;SDS011;63169;46.042;14.592;2023-05-27T09:35:51;8.27;;;3.65;;
74650;SDS011;63169;46.042;14.592;2023-05-27T09:38:17;7.25;;;3.85;;
74650;SDS011;63169;46.042;14.592;2023-05-27T09:40:45;7.30;;;4.63;;
74650;SDS011;63169;46.042;14.592;2023-05-27T09:43:14;6.18;;;3.00;;
74650;SDS011;63169;46.042;14.592;2023-05-27T09:45:41;7.22;;;5.15;;
74650;SDS011;63169;46.042;14.592;2023-05-27T09:48:07;5.68;;;3.65;;
74650;SDS011;63169;46.042;14.592;2023-05-27T09:50:35;5.97;;;3.25;;
74650;SDS011;63169;46.042;14.592;2023-05-27T09:53:00;9.10;;;3.83;;
74650;SDS011;63169;46.042;14.592;2023-05-27T09:55:27;5.82;;;3.33;;
74650;SDS011;63169;46.042;14.592;2023-05-27T09:57:53;7.32;;;3.00;;
74650;SDS011;63169;46.042;14.592;2023-05-27T10:00:19;7.18;;;2.85;;
74650;SDS011;63169;46.042;14.592;2023-05-27T10:02:46;5.75;;;3.25;;
74650;SDS011;63169;46.042;14.592;2023-05-27T10:05:12;5.18;;;3.00;;
74650;SDS011;63169;46.042;14.592;2023-05-27T10:07:40;7.90;;;3.92;;
74650;SDS011;63169;46.042;14.592;2023-05-27T10:10:09;6.20;;;3.05;;
74650;SDS011;63169;46.042;14.592;2023-05-27T10:12:46;6.95;;;5.00;;
74650;SDS011;63169;46.042;14.592;2023-05-27T10:15:22;7.05;;;3.70;;
74650;SDS011;63169;46.042;14.592;2023-05-27T10:20:26;6.45;;;3.88;;
74650;SDS011;63169;46.042;14.592;2023-05-27T10:22:54;7.85;;;3.42;;
74650;SDS011;63169;46.042;14.592;2023-05-27T10:25:21;6.97;;;2.78;;
74650;SDS011;63169;46.042;14.592;2023-05-27T10:27:47;6.43;;;3.47;;
74650;SDS011;63169;46.042;14.592;2023-05-27T10:30:15;5.53;;;3.33;;
74650;SDS011;63169;46.042;14.592;2023-05-27T10:32:49;8.20;;;3.63;;
74650;SDS011;63169;46.042;14.592;2023-05-27T10:35:18;6.22;;;3.67;;
74650;SDS011;63169;46.042;14.592;2023-05-27T10:37:44;7.68;;;2.47;;
74650;SDS011;63169;46.042;14.592;2023-05-27T10:40:11;6.07;;;4.88;;
74650;SDS011;63169;46.042;14.592;2023-05-27T10:42:36;4.55;;;2.20;;
74650;SDS011;63169;46.042;14.592;2023-05-27T10:45:05;6.78;;;2.88;;
74650;SDS011;63169;46.042;14.592;2023-05-27T10:47:35;4.32;;;2.17;;
74650;SDS011;63169;46.042;14.592;2023-05-27T10:50:10;4.15;;;2.13;;
74650;SDS011;63169;46.042;14.592;2023-05-27T10:52:38;6.03;;;2.70;;
74650;SDS011;63169;46.042;14.592;2023-05-27T10:55:04;4.63;;;2.05;;
74650;SDS011;63169;46.042;14.592;2023-05-27T20:15:10;10.63;;;6.95;;
74650;SDS011;63169;46.042;14.592;2023-05-27T20:17:37;8.85;;;5.38;;
74650;SDS011;63169;46.042;14.592;2023-05-27T20:20:03;9.60;;;7.60;;
74650;SDS011;63169;46.042;14.592;2023-05-27T20:22:30;10.40;;;6.65;;
74650;SDS011;63169;46.042;14.592;2023-05-27T20:24:55;8.60;;;6.32;;
74650;SDS011;63169;46.042;14.592;2023-05-27T20:27:22;12.80;;;8.80;;
74650;SDS011;63169;46.042;14.592;2023-05-27T20:29:47;11.70;;;7.18;;
74650;SDS011;63169;46.042;14.592;2023-05-27T20:32:13;13.35;;;10.60;;
74650;SDS011;63169;46.042;14.592;2023-05-27T20:34:39;10.32;;;8.50;;
74650;SDS011;63169;46.042;14.592;2023-05-27T20:37:05;12.80;;;7.18;;
74650;SDS011;63169;46.042;14.592;2023-05-27T20:39:30;12.23;;;9.52;;
74650;SDS011;63169;46.042;14.592;2023-05-27T20:41:56;10.32;;;7.15;;
74650;SDS011;63169;46.042;14.592;2023-05-27T20:44:21;10.27;;;7.10;;
74650;SDS011;63169;46.042;14.592;2023-05-27T20:46:46;11.07;;;8.82;;
74650;SDS011;63169;46.042;14.592;2023-05-27T20:49:12;14.00;;;8.57;;
74650;SDS011;63169;46.042;14.592;2023-05-27T20:51:37;13.45;;;10.40;;
74650;SDS011;63169;46.042;14.592;2023-05-27T20:54:04;12.25;;;8.15;;
74650;SDS011;63169;46.042;14.592;2023-05-27T20:56:29;12.25;;;6.55;;
74650;SDS011;63169;46.042;14.592;2023-05-27T20:58:55;8.88;;;5.10;;
74650;SDS011;63169;46.042;14.592;2023-05-27T21:01:21;10.95;;;7.97;;
74650;SDS011;63169;46.042;14.592;2023-05-27T21:03:46;12.23;;;9.48;;
74650;SDS011;63169;46.042;14.592;2023-05-27T21:06:11;9.65;;;7.43;;
74650;SDS011;63169;46.042;14.592;2023-05-27T21:08:37;10.40;;;7.63;;
74650;SDS011;63169;46.042;14.592;2023-05-27T21:11:02;9.98;;;8.48;;
74650;SDS011;63169;46.042;14.592;2023-05-27T21:13:29;13.52;;;8.38;;
74650;SDS011;63169;46.042;14.592;2023-05-27T21:15:54;13.13;;;9.18;;
74650;SDS011;63169;46.042;14.592;2023-05-27T21:18:20;12.90;;;10.43;;
74650;SDS011;63169;46.042;14.592;2023-05-27T21:20:45;14.48;;;9.27;;
74650;SDS011;63169;46.042;14.592;2023-05-27T21:23:10;11.77;;;9.45;;
74650;SDS011;63169;46.042;14.592;2023-05-27T21:25:36;11.95;;;8.70;;
74650;SDS011;63169;46.042;14.592;2023-05-27T21:28:01;11.77;;;8.02;;
74650;SDS011;63169;46.042;14.592;2023-05-27T21:30:26;12.32;;;8.50;;
74650;SDS011;63169;46.042;14.592;2023-05-27T21:32:52;11.98;;;8.80;;
74650;SDS011;63169;46.042;14.592;2023-05-27T21:35:17;13.35;;;8.43;;
74650;SDS011;63169;46.042;14.592;2023-05-27T21:37:43;11.32;;;6.22;;
74650;SDS011;63169;46.042;14.592;2023-05-27T21:40:08;11.52;;;8.23;;
74650;SDS011;63169;46.042;14.592;2023-05-27T21:42:34;11.88;;;9.88;;
74650;SDS011;63169;46.042;14.592;2023-05-27T21:44:59;13.80;;;7.78;;
74650;SDS011;63169;46.042;14.592;2023-05-27T21:47:24;11.60;;;9.60;;
74650;SDS011;63169;46.042;14.592;2023-05-27T21:49:50;11.52;;;7.70;;
74650;SDS011;63169;46.042;14.592;2023-05-27T21:52:15;11.50;;;8.85;;
74650;SDS011;63169;46.042;14.592;2023-05-27T21:54:40;13.63;;;8.38;;
74650;SDS011;63169;46.042;14.592;2023-05-27T21:57:06;13.40;;;7.20;;
74650;SDS011;63169;46.042;14.592;2023-05-27T21:59:32;13.07;;;7.00;;
74650;SDS011;63169;46.042;14.592;2023-05-27T22:01:57;11.00;;;8.52;;
74650;SDS011;63169;46.042;14.592;2023-05-27T22:04:23;10.43;;;7.88;;
74650;SDS011;63169;46.042;14.592;2023-05-27T22:06:48;12.88;;;8.43;;
74650;SDS011;63169;46.042;14.592;2023-05-27T22:09:14;9.75;;;5.85;;
74650;SDS011;63169;46.042;14.592;2023-05-27T22:11:39;11.68;;;7.47;;
74650;SDS011;63169;46.042;14.592;2023-05-27T22:14:05;13.43;;;8.85;;
74650;SDS011;63169;46.042;14.592;2023-05-27T22:16:30;13.25;;;8.48;;
74650;SDS011;63169;46.042;14.592;2023-05-27T22:18:55;12.40;;;7.85;;
74650;SDS011;63169;46.042;14.592;2023-05-27T22:21:21;10.30;;;7.55;;
74650;SDS011;63169;46.042;14.592;2023-05-27T22:23:46;9.85;;;5.40;;
74650;SDS011;63169;46.042;14.592;2023-05-27T22:26:12;11.75;;;8.20;;
74650;SDS011;63169;46.042;14.592;2023-05-27T22:28:37;10.18;;;7.07;;
74650;SDS011;63169;46.042;14.592;2023-05-27T22:31:02;9.50;;;8.30;;
74650;SDS011;63169;46.042;14.592;2023-05-27T22:33:28;11.43;;;8.25;;
74650;SDS011;63169;46.042;14.592;2023-05-27T22:35:54;9.48;;;7.32;;
74650;SDS011;63169;46.042;14.592;2023-05-27T22:40:45;12.77;;;11.48;;
74650;SDS011;63169;46.042;14.592;2023-05-27T22:43:10;22.05;;;14.70;;
74650;SDS011;63169;46.042;14.592;2023-05-27T22:45:36;11.32;;;9.30;;
74650;SDS011;63169;46.042;14.592;2023-05-27T22:48:01;8.93;;;7.50;;
74650;SDS011;63169;46.042;14.592;2023-05-27T22:50:26;11.40;;;8.88;;
74650;SDS011;63169;46.042;14.592;2023-05-27T22:52:52;10.68;;;7.65;;
74650;SDS011;63169;46.042;14.592;2023-05-27T22:55:17;11.40;;;8.18;;
74650;SDS011;63169;46.042;14.592;2023-05-27T22:57:42;12.45;;;8.60;;
74650;SDS011;63169;46.042;14.592;2023-05-27T23:00:08;10.98;;;7.35;;
74650;SDS011;63169;46.042;14.592;2023-05-27T23:02:34;10.40;;;8.95;;
74650;SDS011;63169;46.042;14.592;2023-05-27T23:04:59;13.73;;;8.13;;
74650;SDS011;63169;46.042;14.592;2023-05-27T23:07:25;10.85;;;8.00;;
74650;SDS011;63169;46.042;14.592;2023-05-27T23:09:50;10.32;;;7.78;;
74650;SDS011;63169;46.042;14.592;2023-05-27T23:12:15;11.38;;;7.88;;
74650;SDS011;63169;46.042;14.592;2023-05-27T23:14:41;10.23;;;7.28;;
74650;SDS011;63169;46.042;14.592;2023-05-27T23:17:06;10.48;;;7.57;;
74650;SDS011;63169;46.042;14.592;2023-05-27T23:19:31;10.13;;;6.97;;
74650;SDS011;63169;46.042;14.592;2023-05-27T23:21:57;12.07;;;7.80;;
74650;SDS011;63169;46.042;14.592;2023-05-27T23:24:22;10.15;;;8.65;;
74650;SDS011;63169;46.042;14.592;2023-05-27T23:26:48;10.32;;;7.53;;
74650;SDS011;63169;46.042;14.592;2023-05-27T23:29:13;10.68;;;8.38;;
74650;SDS011;63169;46.042;14.592;2023-05-27T23:31:38;10.38;;;7.57;;
74650;SDS011;63169;46.042;14.592;2023-05-27T23:34:04;10.23;;;7.45;;
74650;SDS011;63169;46.042;14.592;2023-05-27T23:36:29;10.02;;;6.45;;
74650;SDS011;63169;46.042;14.592;2023-05-27T23:38:55;11.45;;;8.40;;
74650;SDS011;63169;46.042;14.592;2023-05-27T23:41:21;10.93;;;7.70;;
74650;SDS011;63169;46.042;14.592;2023-05-27T23:43:46;9.93;;;7.32;;
74650;SDS011;63169;46.042;14.592;2023-05-27T23:46:11;10.13;;;4.90;;
74650;SDS011;63169;46.042;14.592;2023-05-27T23:48:37;10.52;;;7.63;;
74650;SDS011;63169;46.042;14.592;2023-05-27T23:51:02;11.85;;;7.55;;
74650;SDS011;63169;46.042;14.592;2023-05-27T23:53:28;11.35;;;8.05;;
74650;SDS011;63169;46.042;14.592;2023-05-27T23:55:53;13.27;;;8.43;;
74650;SDS011;63169;46.042;14.592;2023-05-27T23:58:18;11.63;;;8.63;;
